createdAt,value
2022-12-18T00:01:21.420Z,102916.38
2022-12-18T00:03:49.020Z,102908.44
2022-12-18T00:06:16.897Z,102895.97
2022-12-18T00:08:44.518Z,102898.66
2022-12-18T00:11:16.666Z,102901.28
2022-12-18T00:13:45.909Z,102901.28
2022-12-18T00:16:16.239Z,102888.81
2022-12-18T00:18:43.643Z,102874.59
2022-12-18T00:21:12.945Z,102884.34
2022-12-18T00:23:41.373Z,102881.69
2022-12-18T00:26:14.587Z,102878.16
2022-12-18T00:28:43.511Z,102887.03
2022-12-18T00:31:13.263Z,102883.47
2022-12-18T00:33:42.435Z,102877.25
2022-12-18T00:36:15.199Z,102864.81
2022-12-18T00:38:43.172Z,102884.41
2022-12-18T00:41:11.445Z,102884.44
2022-12-18T00:43:40.299Z,102886.25
2022-12-18T00:46:07.737Z,102867.63
2022-12-18T00:48:36.801Z,102866.75
2022-12-18T00:51:03.457Z,102865.84
2022-12-18T00:53:30.015Z,102870.31
2022-12-18T00:55:56.495Z,102852.59
2022-12-18T00:58:22.978Z,102858.84
2022-12-18T01:00:49.531Z,102863.31
2022-12-18T01:03:16.299Z,102865.13
2022-12-18T01:05:43.400Z,102872.25
2022-12-18T01:08:10.613Z,102868.72
2022-12-18T01:10:37.273Z,102886.44
2022-12-18T01:13:03.899Z,102899.75
2022-12-18T01:15:30.471Z,102891.75
2022-12-18T01:17:57.036Z,102896.19
2022-12-18T01:20:23.644Z,102894.41
2022-12-18T01:22:50.163Z,102894.41
2022-12-18T01:25:16.736Z,102895.28
2022-12-18T01:27:45.505Z,102883.75
2022-12-18T01:30:12.387Z,102891.72
2022-12-18T01:32:38.931Z,102871.31
2022-12-18T01:35:06.426Z,102885.47
2022-12-18T01:37:33.028Z,102881.06
2022-12-18T01:39:59.591Z,102870.41
2022-12-18T01:42:26.626Z,102879.28
2022-12-18T01:45:05.412Z,102878.41
2022-12-18T01:47:58.706Z,102881.09
2022-12-18T01:50:44.556Z,102879.31
2022-12-18T01:53:22.714Z,102871.38
2022-12-18T01:55:58.705Z,102886.44
2022-12-18T01:58:44.454Z,102885.56
2022-12-18T02:01:11.308Z,102886.44
2022-12-18T02:03:38.308Z,102882.03
2022-12-18T02:06:11.088Z,102874.03
2022-12-18T02:09:08.891Z,102879.38
2022-12-18T02:12:01.800Z,102878.50
2022-12-18T02:14:42.871Z,102868.72
2022-12-18T02:17:16.472Z,102880.25
2022-12-18T02:20:23.222Z,102876.72
2022-12-18T02:23:08.768Z,102865.19
2022-12-18T02:25:41.397Z,102866.06
2022-12-18T02:28:12.651Z,102866.06
2022-12-18T02:30:41.872Z,102866.97
2022-12-18T02:33:10.776Z,102882.97
2022-12-18T02:35:38.913Z,102868.78
2022-12-18T02:38:08.227Z,102874.13
2022-12-18T02:40:37.079Z,102858.13
2022-12-18T02:43:09.168Z,102859.06
2022-12-18T02:45:35.795Z,102862.59
2022-12-18T02:48:02.433Z,102856.38
2022-12-18T02:50:39.080Z,102854.59
2022-12-18T02:53:21.304Z,102842.19
2022-12-18T02:56:04.574Z,102851.06
2022-12-18T02:58:49.675Z,102860.84
2022-12-18T03:01:31.863Z,102837.75
2022-12-18T03:04:12.638Z,102852.84
2022-12-18T03:06:48.603Z,102852.84
2022-12-18T03:09:20.933Z,102845.72
2022-12-18T03:12:13.679Z,102845.75
2022-12-18T03:14:42.702Z,102849.31
2022-12-18T03:17:14.765Z,102838.66
2022-12-18T03:19:43.217Z,102835.97
2022-12-18T03:22:11.046Z,102829.78
2022-12-18T03:24:40.575Z,102835.09
2022-12-18T03:27:15.996Z,102825.34
2022-12-18T03:29:51.181Z,102818.25
2022-12-18T03:32:27.553Z,102843.97
2022-12-18T03:34:58.817Z,102831.53
2022-12-18T03:37:25.486Z,102808.47
2022-12-18T03:39:52.079Z,102820.00
2022-12-18T03:42:32.051Z,102830.66
2022-12-18T03:45:26.815Z,102828.88
2022-12-18T03:47:56.458Z,102828.00
2022-12-18T03:50:42.755Z,102821.78
2022-12-18T03:53:26.839Z,102804.94
2022-12-18T03:55:56.098Z,102809.41
2022-12-18T03:58:26.378Z,102796.09
2022-12-18T04:00:59.433Z,102797.84
2022-12-18T04:03:28.100Z,102809.38
2022-12-18T04:05:58.909Z,102802.28
2022-12-18T04:08:26.663Z,102796.06
2022-12-18T04:10:53.485Z,102784.53
2022-12-18T04:13:30.322Z,102775.69
2022-12-18T04:15:59.538Z,102786.31
2022-12-18T04:18:26.216Z,102788.09
2022-12-18T04:20:53.195Z,102785.44
2022-12-18T04:23:21.809Z,102783.66
2022-12-18T04:25:48.612Z,102769.44
2022-12-18T04:28:17.473Z,102783.66
2022-12-18T04:30:49.343Z,102780.97
2022-12-18T04:33:16.081Z,102785.41
2022-12-18T04:35:45.660Z,102787.19
2022-12-18T04:38:12.312Z,102794.31
2022-12-18T04:40:39.853Z,102788.09
2022-12-18T04:43:08.323Z,102800.50
2022-12-18T04:45:37.180Z,102799.63
2022-12-18T04:48:04.527Z,102793.41
2022-12-18T04:50:33.606Z,102807.59
2022-12-18T04:53:00.170Z,102813.81
2022-12-18T04:55:27.146Z,102817.38
2022-12-18T04:57:56.340Z,102825.34
2022-12-18T05:00:23.546Z,102822.69
2022-12-18T05:02:50.233Z,102828.03
2022-12-18T05:05:17.132Z,102826.22
2022-12-18T05:07:43.717Z,102820.91
2022-12-18T05:10:12.852Z,102827.09
2022-12-18T05:12:58.990Z,102831.53
2022-12-18T05:15:32.301Z,102828.88
2022-12-18T05:18:00.079Z,102837.75
2022-12-18T05:20:27.910Z,102829.75
2022-12-18T05:22:55.223Z,102834.19
2022-12-18T05:25:22.619Z,102836.81
2022-12-18T05:27:49.247Z,102825.28
2022-12-18T05:30:16.709Z,102820.84
2022-12-18T05:32:43.499Z,102819.06
2022-12-18T05:35:14.972Z,102824.38
2022-12-18T05:37:43.373Z,102813.75
2022-12-18T05:40:11.120Z,102829.69
2022-12-18T05:42:37.934Z,102819.03
2022-12-18T05:45:05.448Z,102811.97
2022-12-18T05:47:32.236Z,102808.41
2022-12-18T05:49:58.929Z,102819.06
2022-12-18T05:52:25.580Z,102805.75
2022-12-18T05:54:52.218Z,102803.09
2022-12-18T05:57:18.778Z,102794.25
2022-12-18T05:59:45.434Z,102803.09
2022-12-18T06:02:12.133Z,102786.25
2022-12-18T06:04:41.126Z,102788.03
2022-12-18T06:07:07.860Z,102806.66
2022-12-18T06:09:34.347Z,102797.78
2022-12-18T06:12:00.883Z,102793.38
2022-12-18T06:14:27.451Z,102775.66
2022-12-18T06:16:53.984Z,102780.97
2022-12-18T06:19:20.573Z,102789.81
2022-12-18T06:21:47.788Z,102792.47
2022-12-18T06:24:14.396Z,102764.97
2022-12-18T06:26:41.057Z,102800.44
2022-12-18T06:29:07.709Z,102808.41
2022-12-18T06:31:34.455Z,102795.09
2022-12-18T06:34:05.858Z,102797.75
2022-12-18T06:36:32.901Z,102791.63
2022-12-18T06:39:01.829Z,102788.97
2022-12-18T06:41:28.394Z,102796.91
2022-12-18T06:43:59.956Z,102788.03
2022-12-18T06:46:27.021Z,102772.09
2022-12-18T06:48:53.794Z,102779.19
2022-12-18T06:51:27.311Z,102764.13
2022-12-18T06:53:53.910Z,102768.56
2022-12-18T06:56:20.438Z,102760.56
2022-12-18T06:58:47.058Z,102769.44
2022-12-18T07:01:15.055Z,102770.34
2022-12-18T07:03:42.932Z,102760.56
2022-12-18T07:06:19.198Z,102768.56
2022-12-18T07:08:49.368Z,102754.41
2022-12-18T07:11:16.885Z,102738.44
2022-12-18T07:13:43.875Z,102748.16
2022-12-18T07:16:18.441Z,102735.78
2022-12-18T07:18:49.577Z,102718.94
2022-12-18T07:21:18.915Z,102736.66
2022-12-18T07:23:49.227Z,102737.53
2022-12-18T07:26:19.273Z,102735.75
2022-12-18T07:28:46.288Z,102721.59
2022-12-18T07:31:16.044Z,102710.06
2022-12-18T07:33:43.359Z,102698.53
2022-12-18T07:36:13.832Z,102710.06
2022-12-18T07:38:41.120Z,102711.84
2022-12-18T07:41:12.044Z,102705.66
2022-12-18T07:43:42.926Z,102707.41
2022-12-18T07:46:14.973Z,102691.47
2022-12-18T07:48:42.919Z,102683.47
2022-12-18T07:51:13.949Z,102685.22
2022-12-18T07:53:44.154Z,102632.06
2022-12-18T07:56:30.377Z,102672.78
2022-12-18T07:58:58.727Z,102668.34
2022-12-18T08:01:25.763Z,102671.00
2022-12-18T08:03:52.772Z,102679.84
2022-12-18T08:06:22.376Z,102677.19
2022-12-18T08:08:55.424Z,102685.13
2022-12-18T08:11:22.628Z,102642.59
2022-12-18T08:13:52.294Z,102681.53
2022-12-18T08:16:19.624Z,102685.06
2022-12-18T08:18:47.358Z,102689.47
2022-12-18T08:21:18.225Z,102695.66
2022-12-18T08:23:45.947Z,102696.53
2022-12-18T08:26:13.799Z,102695.59
2022-12-18T08:28:41.149Z,102692.88
2022-12-18T08:31:08.704Z,102698.19
2022-12-18T08:33:39.405Z,102682.19
2022-12-18T08:36:06.853Z,102691.91
2022-12-18T08:38:34.185Z,102686.53
2022-12-18T08:41:02.160Z,102665.19
2022-12-18T08:43:47.712Z,102666.97
2022-12-18T08:46:14.427Z,102651.84
2022-12-18T08:48:43.126Z,102658.88
2022-12-18T08:51:10.658Z,102664.16
2022-12-18T08:53:38.685Z,102665.00
2022-12-18T08:56:06.247Z,102669.41
2022-12-18T08:58:32.807Z,102667.56
2022-12-18T09:01:10.653Z,102672.88
2022-12-18T09:03:37.828Z,102661.25
2022-12-18T09:06:07.472Z,102669.16
2022-12-18T09:08:34.802Z,102670.00
2022-12-18T09:11:01.311Z,102663.75
2022-12-18T09:13:27.892Z,102667.25
2022-12-18T09:15:55.629Z,102667.19
2022-12-18T09:18:24.121Z,102679.59
2022-12-18T09:20:52.815Z,102686.59
2022-12-18T09:23:20.140Z,102688.34
2022-12-18T09:25:46.776Z,102694.47
2022-12-18T09:28:18.651Z,102697.06
2022-12-18T09:30:48.076Z,102690.75
2022-12-18T09:33:14.828Z,102653.44
2022-12-18T09:35:42.880Z,102674.56
2022-12-18T09:38:13.218Z,102662.97
2022-12-18T09:41:11.535Z,102651.28
2022-12-18T09:43:52.653Z,102635.28
2022-12-18T09:46:27.875Z,102640.59
2022-12-18T09:48:59.469Z,102650.28
2022-12-18T09:51:47.675Z,102635.19
2022-12-18T09:54:23.059Z,102634.06
2022-12-18T09:56:49.793Z,102617.88
2022-12-18T09:59:27.628Z,102617.78
2022-12-18T10:01:55.129Z,102624.81
2022-12-18T10:04:21.911Z,102630.91
2022-12-18T10:07:07.248Z,102637.06
2022-12-18T10:09:44.005Z,102642.34
2022-12-18T10:12:24.827Z,102635.97
2022-12-18T10:14:54.452Z,102635.78
2022-12-18T10:17:27.031Z,102633.91
2022-12-18T10:20:20.257Z,102615.13
2022-12-18T10:23:07.297Z,102626.63
2022-12-18T10:26:06.760Z,102624.09
2022-12-18T10:28:41.967Z,102619.44
2022-12-18T10:31:17.279Z,102621.13
2022-12-18T10:33:44.462Z,102612.13
2022-12-18T10:36:11.448Z,102593.41
2022-12-18T10:38:40.885Z,102604.91
2022-12-18T10:41:27.034Z,102594.97
2022-12-18T10:44:18.682Z,102573.44
2022-12-18T10:46:47.936Z,102570.63
2022-12-18T10:49:27.993Z,102561.59
2022-12-18T10:52:24.098Z,102574.00
2022-12-18T10:54:54.328Z,102564.25
2022-12-18T10:57:26.975Z,102566.00
2022-12-18T10:59:56.191Z,102557.16
2022-12-18T11:02:37.442Z,102544.69
2022-12-18T11:05:24.165Z,102549.97
2022-12-18T11:07:51.773Z,102558.56
2022-12-18T11:10:20.298Z,102547.84
2022-12-18T11:12:47.643Z,102560.28
2022-12-18T11:15:24.619Z,102561.97
2022-12-18T11:17:52.590Z,102554.78
2022-12-18T11:20:37.576Z,102551.13
2022-12-18T11:23:14.135Z,102552.81
2022-12-18T11:25:43.460Z,102550.84
2022-12-18T11:28:34.830Z,102535.63
2022-12-18T11:31:23.715Z,102533.84
2022-12-18T11:34:27.407Z,102532.84
2022-12-18T11:36:48.430Z,102532.03
2022-12-18T11:39:21.095Z,102548.81
2022-12-18T11:42:24.049Z,102531.84
2022-12-18T11:45:19.436Z,102518.47
2022-12-18T11:48:23.543Z,102521.94
2022-12-18T11:50:52.125Z,102518.25
2022-12-18T11:53:22.103Z,102522.59
2022-12-18T11:56:01.060Z,102515.47
2022-12-18T11:58:34.265Z,102509.19
2022-12-18T12:01:15.420Z,102508.25
2022-12-18T12:04:07.058Z,102506.31
2022-12-18T12:06:36.878Z,102497.34
2022-12-18T12:09:32.601Z,102490.16
2022-12-18T12:12:24.329Z,102477.59
2022-12-18T12:15:29.813Z,102470.38
2022-12-18T12:18:14.833Z,102475.75
2022-12-18T12:21:03.166Z,102471.25
2022-12-18T12:23:45.898Z,102465.06
2022-12-18T12:26:35.446Z,102459.63
2022-12-18T12:29:23.232Z,102442.84
2022-12-18T12:32:12.137Z,102447.09
2022-12-18T12:35:02.711Z,102451.50
2022-12-18T12:38:00.358Z,102439.03
2022-12-18T12:43:37.710Z,102430.06
2022-12-18T12:46:15.086Z,102420.16
2022-12-18T12:48:49.455Z,102419.22
2022-12-18T12:51:29.698Z,102417.56
2022-12-18T12:53:59.997Z,102410.25
2022-12-18T12:56:55.569Z,102412.03
2022-12-18T12:59:41.173Z,102403.16
2022-12-18T13:02:29.452Z,102404.81
2022-12-18T13:05:23.133Z,102389.78
2022-12-18T13:08:00.408Z,102390.69
2022-12-18T13:10:33.965Z,102402.09
2022-12-18T13:13:17.344Z,102394.22
2022-12-18T13:16:04.306Z,102395.88
2022-12-18T13:18:33.402Z,102395.06
2022-12-18T13:21:03.401Z,102395.88
2022-12-18T13:23:30.543Z,102392.25
2022-12-18T13:26:27.934Z,102393.97
2022-12-18T13:28:59.353Z,102385.00
2022-12-18T13:31:41.085Z,102395.69
2022-12-18T13:34:31.060Z,102382.47
2022-12-18T13:37:32.844Z,102391.25
2022-12-18T13:39:59.469Z,102380.56
2022-12-18T13:43:00.143Z,102381.44
2022-12-18T13:45:43.316Z,102372.53
2022-12-18T13:48:18.257Z,102370.75
2022-12-18T13:50:50.570Z,102358.31
2022-12-18T13:53:22.802Z,102359.97
2022-12-18T13:55:50.976Z,102337.03
2022-12-18T13:58:18.004Z,102347.56
2022-12-18T14:00:45.013Z,102350.16
2022-12-18T14:03:25.189Z,102351.06
2022-12-18T14:06:06.898Z,102351.06
2022-12-18T14:08:38.490Z,102349.28
2022-12-18T14:11:07.915Z,102355.59
2022-12-18T14:13:43.168Z,102354.69
2022-12-18T14:16:15.568Z,102354.56
2022-12-18T14:19:02.232Z,102356.31
2022-12-18T14:21:47.061Z,102339.50
2022-12-18T14:24:22.577Z,102357.22
2022-12-18T14:26:53.469Z,102352.78
2022-12-18T14:29:30.997Z,102348.38
2022-12-18T14:32:23.301Z,102350.97
2022-12-18T14:34:57.269Z,102329.56
2022-12-18T14:37:26.746Z,102324.28
2022-12-18T14:40:03.253Z,102332.47
2022-12-18T14:42:34.802Z,102332.50
2022-12-18T14:45:44.388Z,102338.47
2022-12-18T14:48:40.212Z,102336.69
2022-12-18T14:51:23.704Z,102335.81
2022-12-18T14:54:01.743Z,102320.69
2022-12-18T14:56:31.178Z,102329.66
2022-12-18T14:59:04.429Z,102326.88
2022-12-18T15:02:00.044Z,102319.00
2022-12-18T15:04:32.911Z,102334.94
2022-12-18T15:07:17.539Z,102328.78
2022-12-18T15:10:12.565Z,102328.69
2022-12-18T15:13:09.897Z,102306.53
2022-12-18T15:15:44.449Z,102318.00
2022-12-18T15:18:13.841Z,102318.00
2022-12-18T15:20:54.128Z,102305.56
2022-12-18T15:23:39.473Z,102306.53
2022-12-18T15:26:14.219Z,102302.09
2022-12-18T15:29:00.948Z,102301.19
2022-12-18T15:31:34.402Z,102294.03
2022-12-18T15:34:08.987Z,102296.59
2022-12-18T15:36:38.010Z,102304.66
2022-12-18T15:39:06.466Z,102292.22
2022-12-18T15:41:36.300Z,102297.56
2022-12-18T15:44:04.241Z,102292.09
2022-12-18T15:46:31.774Z,102284.03
2022-12-18T15:49:02.211Z,102288.50
2022-12-18T15:51:37.946Z,102296.50
2022-12-18T15:54:07.101Z,102271.72
2022-12-18T15:56:52.306Z,102271.44
2022-12-18T15:59:23.681Z,102279.44
2022-12-18T16:01:52.407Z,102277.69
2022-12-18T16:04:24.613Z,102269.66
2022-12-18T16:09:39.776Z,102271.31
2022-12-18T16:12:10.889Z,102261.59
2022-12-18T16:14:37.423Z,102256.09
2022-12-18T16:17:10.209Z,102252.50
2022-12-18T16:19:36.741Z,102252.50
2022-12-18T16:22:05.919Z,102251.53
2022-12-18T16:24:37.272Z,102239.06
2022-12-18T16:27:04.425Z,102226.53
2022-12-18T16:29:34.027Z,102238.91
2022-12-18T16:32:01.750Z,102222.03
2022-12-18T16:34:35.789Z,102235.31
2022-12-18T16:37:07.896Z,102220.06
2022-12-18T16:39:37.898Z,102209.38
2022-12-18T16:42:17.615Z,102209.44
2022-12-18T16:44:45.566Z,102209.25
2022-12-18T16:47:15.321Z,102212.75
2022-12-18T16:49:42.778Z,102202.94
2022-12-18T16:52:11.791Z,102216.16
2022-12-18T16:54:38.362Z,102222.44
2022-12-18T16:57:05.540Z,102225.00
2022-12-18T16:59:34.957Z,102205.34
2022-12-18T17:02:05.810Z,102202.66
2022-12-18T17:04:34.708Z,102191.88
2022-12-18T17:07:04.649Z,102190.94
2022-12-18T17:09:31.163Z,102182.97
2022-12-18T17:11:57.762Z,102193.56
2022-12-18T17:14:27.308Z,102185.66
2022-12-18T17:17:19.589Z,102199.03
2022-12-18T17:19:43.675Z,102206.94
2022-12-18T17:22:12.616Z,102214.97
2022-12-18T17:24:39.181Z,102219.41
2022-12-18T17:27:05.841Z,102223.84
2022-12-18T17:29:32.328Z,102203.56
2022-12-18T17:32:00.311Z,102217.66
2022-12-18T17:34:31.847Z,102213.06
2022-12-18T17:36:58.425Z,102215.72
2022-12-18T17:39:28.732Z,102220.13
2022-12-18T17:41:55.537Z,102230.75
2022-12-18T17:44:24.574Z,102218.38
2022-12-18T17:46:51.181Z,102218.19
2022-12-18T17:49:17.822Z,102223.44
2022-12-18T17:51:44.429Z,102227.03
2022-12-18T17:54:13.945Z,102218.03
2022-12-18T17:56:40.606Z,102195.94
2022-12-18T17:59:11.791Z,102214.44
2022-12-18T18:01:44.015Z,102217.94
2022-12-18T18:04:12.346Z,102211.66
2022-12-18T18:06:41.231Z,102202.81
2022-12-18T18:09:15.926Z,102200.03
2022-12-18T18:12:01.729Z,102199.00
2022-12-18T18:14:28.411Z,102202.81
2022-12-18T18:16:58.224Z,102197.09
2022-12-18T18:19:31.777Z,102208.66
2022-12-18T18:22:01.497Z,102200.63
2022-12-18T18:24:28.896Z,102199.00
2022-12-18T18:26:59.618Z,102190.91
2022-12-18T18:29:26.971Z,102199.72
2022-12-18T18:31:58.413Z,102199.56
2022-12-18T18:34:28.430Z,102195.91
2022-12-18T18:36:55.260Z,102181.72
2022-12-18T18:39:21.928Z,102186.00
2022-12-18T18:41:49.178Z,102190.44
2022-12-18T18:44:17.452Z,102193.94
2022-12-18T18:46:44.831Z,102190.44
2022-12-18T18:49:11.964Z,102166.63
2022-12-18T18:51:38.534Z,102189.41
2022-12-18T18:54:05.115Z,102191.13
2022-12-18T18:59:19.318Z,102188.44
2022-12-18T19:01:50.574Z,102193.66
2022-12-18T19:04:17.272Z,102191.84
2022-12-18T19:06:47.747Z,102191.72
2022-12-18T19:09:15.435Z,102190.72
2022-12-18T19:12:00.897Z,102190.72
2022-12-18T19:14:27.450Z,102169.47
2022-12-18T19:16:54.316Z,102186.22
2022-12-18T19:19:22.039Z,102176.31
2022-12-18T19:21:50.075Z,102179.03
2022-12-18T19:24:16.703Z,102171.00
2022-12-18T19:26:43.664Z,102183.41
2022-12-18T19:29:11.809Z,102167.75
2022-12-18T19:31:38.423Z,102190.47
2022-12-18T19:34:06.996Z,102193.91
2022-12-18T19:36:35.800Z,102187.63
2022-12-18T19:39:08.036Z,102199.19
2022-12-18T19:41:34.728Z,102200.91
2022-12-18T19:44:02.418Z,102202.69
2022-12-18T19:46:34.703Z,102194.63
2022-12-18T19:49:01.428Z,102196.28
2022-12-18T19:51:29.676Z,102189.09
2022-12-18T19:54:01.580Z,102182.09
2022-12-18T19:56:31.794Z,102182.88
2022-12-18T19:58:58.581Z,102172.13
2022-12-18T20:01:27.796Z,102173.00
2022-12-18T20:03:55.890Z,102180.13
2022-12-18T20:06:33.810Z,102188.19
2022-12-18T20:09:06.593Z,102185.72
2022-12-18T20:11:36.379Z,102188.13
2022-12-18T20:14:08.747Z,102185.56
2022-12-18T20:16:38.446Z,102186.50
2022-12-18T20:19:06.545Z,102189.94
2022-12-18T20:21:36.057Z,102185.50
2022-12-18T20:24:02.702Z,102192.63
2022-12-18T20:26:29.937Z,102188.13
2022-12-18T20:28:56.706Z,102188.13
2022-12-18T20:31:23.926Z,102172.00
2022-12-18T20:33:52.177Z,102174.66
2022-12-18T20:36:25.789Z,102178.19
2022-12-18T20:38:59.309Z,102177.28
2022-12-18T20:41:37.318Z,102174.66
2022-12-18T20:44:22.893Z,102163.03
2022-12-18T20:46:55.379Z,102163.91
2022-12-18T20:49:23.786Z,102165.72
2022-12-18T20:51:56.176Z,102161.22
2022-12-18T20:54:24.550Z,102151.34
2022-12-18T20:56:51.696Z,102154.81
2022-12-18T20:59:19.460Z,102156.53
2022-12-18T21:01:49.629Z,102148.44
2022-12-18T21:04:18.866Z,102140.38
2022-12-18T21:06:50.935Z,102127.03
2022-12-18T21:09:20.409Z,102137.56
2022-12-18T21:12:05.595Z,102129.47
2022-12-18T21:14:32.306Z,102121.41
2022-12-18T21:17:02.304Z,102109.78
2022-12-18T21:19:29.854Z,102105.34
2022-12-18T21:21:56.895Z,102095.50
2022-12-18T21:24:24.652Z,102099.03
2022-12-18T21:26:51.512Z,102094.56
2022-12-18T21:29:23.773Z,102099.38
2022-12-18T21:31:54.464Z,102102.59
2022-12-18T21:34:25.576Z,102112.47
2022-12-18T21:36:52.710Z,102100.19
2022-12-18T21:39:19.931Z,102114.44
2022-12-18T21:42:08.174Z,102114.19
2022-12-18T21:44:36.145Z,102101.94
2022-12-18T21:47:21.462Z,102104.41
2022-12-18T21:49:53.105Z,102098.13
2022-12-18T21:52:25.699Z,102101.59
2022-12-18T21:55:08.043Z,102094.41
2022-12-18T21:57:36.504Z,102088.22
2022-12-18T22:00:07.850Z,102083.59
2022-12-18T22:02:34.771Z,102073.72
2022-12-18T22:05:01.449Z,102059.53
2022-12-18T22:07:29.232Z,102065.59
2022-12-18T22:09:55.794Z,102050.41
2022-12-18T22:12:43.135Z,102046.75
2022-12-18T22:15:13.180Z,102042.22
2022-12-18T22:17:48.629Z,102024.44
2022-12-18T22:20:20.611Z,102030.56
2022-12-18T22:22:48.141Z,102024.38
2022-12-18T22:25:14.821Z,102032.25
2022-12-18T22:27:43.607Z,102018.94
2022-12-18T22:30:14.528Z,102014.31
2022-12-18T22:32:41.097Z,101987.84
2022-12-18T22:35:12.908Z,102001.63
2022-12-18T22:37:42.239Z,101981.13
2022-12-18T22:40:22.267Z,101976.50
2022-12-18T22:42:53.671Z,101974.69
2022-12-18T22:45:20.942Z,101978.38
2022-12-18T22:47:47.479Z,101974.75
2022-12-18T22:50:14.561Z,101965.88
2022-12-18T22:52:43.591Z,101968.25
2022-12-18T22:55:12.624Z,101967.31
2022-12-18T22:57:39.405Z,101969.06
2022-12-18T23:00:11.682Z,101965.44
2022-12-18T23:02:38.350Z,101927.56
2022-12-18T23:05:05.496Z,101945.91
2022-12-18T23:07:31.992Z,101956.38
2022-12-18T23:10:00.648Z,101951.84
2022-12-18T23:12:28.137Z,101926.97
2022-12-18T23:14:56.992Z,101939.25
2022-12-18T23:17:23.524Z,101942.94
2022-12-18T23:19:50.026Z,101946.28
2022-12-18T23:22:17.321Z,101936.44
2022-12-18T23:24:44.181Z,101921.13
2022-12-18T23:27:11.897Z,101912.13
2022-12-18T23:29:39.293Z,101910.22
2022-12-18T23:32:06.290Z,101915.72
2022-12-18T23:34:32.830Z,101911.03
2022-12-18T23:37:01.091Z,101904.78
2022-12-18T23:39:29.419Z,101909.16
2022-12-18T23:41:58.226Z,101886.16
2022-12-18T23:44:25.072Z,101898.38
2022-12-18T23:46:51.811Z,101902.84
2022-12-18T23:49:18.425Z,101872.66
2022-12-18T23:51:45.014Z,101877.66
2022-12-18T23:54:11.624Z,101885.66
2022-12-18T23:56:40.411Z,101881.06
2022-12-18T23:59:07.167Z,101873.00
